createdAt,value
2023-06-15T00:00:58.177Z,2.40
2023-06-15T00:03:26.550Z,2.80
2023-06-15T00:05:53.403Z,2.80
2023-06-15T00:08:20.885Z,2.80
2023-06-15T00:10:47.806Z,2.57
2023-06-15T00:13:15.582Z,2.63
2023-06-15T00:15:42.429Z,2.77
2023-06-15T00:18:09.250Z,2.60
2023-06-15T00:20:35.845Z,2.37
2023-06-15T00:23:02.665Z,2.50
2023-06-15T00:25:29.351Z,2.30
2023-06-15T00:27:55.918Z,2.63
2023-06-15T00:30:22.474Z,2.20
2023-06-15T00:32:49.140Z,2.60
2023-06-15T00:35:16.339Z,2.63
2023-06-15T00:37:43.218Z,2.27
2023-06-15T00:40:10.586Z,2.40
2023-06-15T00:42:37.934Z,2.40
2023-06-15T00:45:06.389Z,2.40
2023-06-15T00:47:40.050Z,2.67
2023-06-15T00:50:11.799Z,2.57
2023-06-15T00:52:39.329Z,2.93
2023-06-15T00:55:06.993Z,2.10
2023-06-15T00:57:35.984Z,2.13
2023-06-15T01:00:02.815Z,2.80
2023-06-15T01:02:30.460Z,2.83
2023-06-15T01:04:57.075Z,2.33
2023-06-15T01:07:29.098Z,2.73
2023-06-15T01:09:59.019Z,2.60
2023-06-15T01:12:26.343Z,2.20
2023-06-15T01:14:53.241Z,2.40
2023-06-15T01:17:24.834Z,2.63
2023-06-15T01:19:59.254Z,2.47
2023-06-15T01:22:38.165Z,2.00
2023-06-15T01:25:11.662Z,2.83
2023-06-15T01:27:40.958Z,2.67
2023-06-15T01:30:10.455Z,2.20
2023-06-15T01:32:37.268Z,2.53
2023-06-15T01:35:04.622Z,2.40
2023-06-15T01:37:31.184Z,2.47
2023-06-15T01:39:58.204Z,2.30
2023-06-15T01:42:25.016Z,2.60
2023-06-15T01:44:54.332Z,2.47
2023-06-15T01:47:21.744Z,2.40
2023-06-15T01:49:48.539Z,2.60
2023-06-15T01:52:16.118Z,2.30
2023-06-15T01:54:42.831Z,2.37
2023-06-15T01:57:09.513Z,2.70
2023-06-15T01:59:36.219Z,2.17
2023-06-15T02:02:02.839Z,2.70
2023-06-15T02:04:31.645Z,2.10
2023-06-15T02:07:01.156Z,2.07
2023-06-15T02:09:28.046Z,2.53
2023-06-15T02:11:54.774Z,2.27
2023-06-15T02:14:24.295Z,2.70
2023-06-15T02:16:51.303Z,2.63
2023-06-15T02:19:22.390Z,2.57
2023-06-15T02:21:50.549Z,2.80
2023-06-15T02:24:19.043Z,2.47
2023-06-15T02:26:45.889Z,2.60
2023-06-15T02:29:13.946Z,2.23
2023-06-15T02:31:40.848Z,2.70
2023-06-15T02:34:07.858Z,2.53
2023-06-15T02:36:36.230Z,2.10
2023-06-15T02:39:03.430Z,2.13
2023-06-15T02:41:30.198Z,2.43
2023-06-15T02:43:57.224Z,2.27
2023-06-15T02:46:24.335Z,2.30
2023-06-15T02:48:54.849Z,2.50
2023-06-15T02:51:22.764Z,2.50
2023-06-15T02:53:49.738Z,2.40
2023-06-15T02:56:20.950Z,2.40
2023-06-15T02:58:49.515Z,2.30
2023-06-15T03:01:25.488Z,2.50
2023-06-15T03:03:56.001Z,2.53
2023-06-15T03:06:25.937Z,2.50
2023-06-15T03:08:54.076Z,2.63
2023-06-15T03:11:24.302Z,3.13
2023-06-15T03:13:51.894Z,2.23
2023-06-15T03:16:18.514Z,4.50
2023-06-15T03:18:49.869Z,2.50
2023-06-15T03:21:19.362Z,2.33
2023-06-15T03:23:47.011Z,2.30
2023-06-15T03:26:14.896Z,2.37
2023-06-15T03:28:41.758Z,2.30
2023-06-15T03:31:11.770Z,2.90
2023-06-15T03:33:38.583Z,2.37
2023-06-15T03:36:05.351Z,2.37
2023-06-15T03:38:34.689Z,2.70
2023-06-15T03:41:01.404Z,2.73
2023-06-15T03:43:27.996Z,2.67
2023-06-15T03:45:54.743Z,2.20
2023-06-15T03:48:21.412Z,2.10
2023-06-15T03:50:48.626Z,2.13
2023-06-15T03:53:15.333Z,2.20
2023-06-15T03:55:41.910Z,2.57
2023-06-15T03:58:08.433Z,2.43
2023-06-15T04:00:35.600Z,2.20
2023-06-15T04:03:02.584Z,3.00
2023-06-15T04:05:29.471Z,2.27
2023-06-15T04:07:56.031Z,2.70
2023-06-15T04:10:23.758Z,2.70
2023-06-15T04:12:51.585Z,2.20
2023-06-15T04:15:18.638Z,2.67
2023-06-15T04:17:49.770Z,2.43
2023-06-15T04:20:19.191Z,2.40
2023-06-15T04:22:46.522Z,2.40
2023-06-15T04:25:13.418Z,2.30
2023-06-15T04:27:41.085Z,1.90
2023-06-15T04:30:08.391Z,4.30
2023-06-15T04:32:37.291Z,2.80
2023-06-15T04:35:05.817Z,2.20
2023-06-15T04:37:33.773Z,2.33
2023-06-15T04:40:01.849Z,2.50
2023-06-15T04:42:34.891Z,1.90
2023-06-15T04:45:05.375Z,2.20
2023-06-15T04:47:32.102Z,2.67
2023-06-15T04:49:58.626Z,2.63
2023-06-15T04:52:25.677Z,2.17
2023-06-15T04:54:52.253Z,2.00
2023-06-15T04:57:18.968Z,3.20
2023-06-15T04:59:46.160Z,2.10
2023-06-15T05:02:14.016Z,2.50
2023-06-15T05:04:40.746Z,2.53
2023-06-15T05:07:07.578Z,2.30
2023-06-15T05:09:40.858Z,2.47
2023-06-15T05:12:11.621Z,2.07
2023-06-15T05:14:38.333Z,2.73
2023-06-15T05:17:07.461Z,2.20
2023-06-15T05:19:34.268Z,2.33
2023-06-15T05:22:02.449Z,2.53
2023-06-15T05:24:31.175Z,2.50
2023-06-15T05:26:57.792Z,2.37
2023-06-15T05:29:25.116Z,2.47
2023-06-15T05:31:51.752Z,2.50
2023-06-15T05:34:19.495Z,2.43
2023-06-15T05:36:57.030Z,2.40
2023-06-15T05:39:30.181Z,4.00
2023-06-15T05:41:57.821Z,2.20
2023-06-15T05:44:24.703Z,3.37
2023-06-15T05:46:54.230Z,4.57
2023-06-15T05:49:21.369Z,4.20
2023-06-15T05:51:48.376Z,4.97
2023-06-15T05:54:16.726Z,6.10
2023-06-15T05:56:43.984Z,4.53
2023-06-15T05:59:19.597Z,5.83
2023-06-15T06:01:54.579Z,7.13
2023-06-15T06:04:21.370Z,4.90
2023-06-15T06:06:50.091Z,6.40
2023-06-15T06:09:16.857Z,6.83
2023-06-15T06:11:43.574Z,5.43
2023-06-15T06:14:10.077Z,8.00
2023-06-15T06:16:36.761Z,9.27
2023-06-15T06:19:03.406Z,5.90
2023-06-15T06:21:32.555Z,13.33
2023-06-15T06:24:00.006Z,14.17
2023-06-15T06:26:26.950Z,9.83
2023-06-15T06:28:53.818Z,8.37
2023-06-15T06:31:20.486Z,7.87
2023-06-15T06:33:47.038Z,6.27
2023-06-15T06:36:13.683Z,6.20
2023-06-15T06:38:52.846Z,6.97
2023-06-15T06:41:27.044Z,8.10
2023-06-15T06:43:54.122Z,8.47
2023-06-15T06:46:21.647Z,6.00
2023-06-15T06:48:48.151Z,5.83
2023-06-15T06:51:14.761Z,7.00
2023-06-15T06:53:41.323Z,5.20
2023-06-15T06:56:07.867Z,12.97
2023-06-15T06:58:34.424Z,6.23
2023-06-15T07:01:01.056Z,7.43
2023-06-15T07:03:27.650Z,6.73
2023-06-15T07:05:54.334Z,6.57
2023-06-15T07:08:22.009Z,5.90
2023-06-15T07:10:49.417Z,7.90
2023-06-15T07:13:15.959Z,6.23
2023-06-15T07:15:42.515Z,7.27
2023-06-15T07:18:09.128Z,5.93
2023-06-15T07:20:35.827Z,5.63
2023-06-15T07:23:02.415Z,7.40
2023-06-15T07:25:29.016Z,5.93
2023-06-15T07:27:55.640Z,6.00
2023-06-15T07:30:22.596Z,6.43
2023-06-15T07:32:49.268Z,7.30
2023-06-15T07:35:16.500Z,5.37
2023-06-15T07:37:43.243Z,5.30
2023-06-15T07:40:10.095Z,5.50
2023-06-15T07:42:36.787Z,6.00
2023-06-15T07:45:03.482Z,4.80
2023-06-15T07:47:30.651Z,6.27
2023-06-15T07:49:57.256Z,4.83
2023-06-15T07:52:23.870Z,5.13
2023-06-15T07:54:50.691Z,6.70
2023-06-15T07:57:17.266Z,4.37
2023-06-15T07:59:43.855Z,5.67
2023-06-15T08:02:10.510Z,5.20
2023-06-15T08:04:37.084Z,4.50
2023-06-15T08:07:04.153Z,4.47
2023-06-15T08:09:30.761Z,5.80
2023-06-15T08:11:58.087Z,4.30
2023-06-15T08:14:24.673Z,4.70
2023-06-15T08:16:51.173Z,4.57
2023-06-15T08:19:17.781Z,5.10
2023-06-15T08:21:44.504Z,4.20
2023-06-15T08:24:11.285Z,4.00
2023-06-15T08:26:37.870Z,4.23
2023-06-15T08:29:18.527Z,3.67
2023-06-15T08:31:49.705Z,4.33
2023-06-15T08:34:16.291Z,4.50
2023-06-15T08:36:42.942Z,23.90
2023-06-15T08:39:09.814Z,25.50
2023-06-15T08:41:39.607Z,24.53
2023-06-15T08:44:06.668Z,17.17
2023-06-15T08:46:33.615Z,13.97
2023-06-15T08:49:00.987Z,14.63
2023-06-15T08:51:27.607Z,14.50
2023-06-15T08:53:56.224Z,13.07
2023-06-15T08:56:23.204Z,10.90
2023-06-15T08:58:51.101Z,11.17
2023-06-15T09:01:25.233Z,11.30
2023-06-15T09:03:53.321Z,10.73
2023-06-15T09:06:20.592Z,10.53
2023-06-15T09:08:49.504Z,11.20
2023-06-15T09:11:17.536Z,10.30
2023-06-15T09:13:50.538Z,11.37
2023-06-15T09:16:17.228Z,11.10
2023-06-15T09:18:49.103Z,8.77
2023-06-15T09:21:18.000Z,8.37
2023-06-15T09:23:46.165Z,8.50
2023-06-15T09:26:24.170Z,8.77
2023-06-15T09:28:51.193Z,8.90
2023-06-15T09:31:31.273Z,7.13
2023-06-15T09:34:08.595Z,7.90
2023-06-15T09:36:48.165Z,7.10
2023-06-15T09:39:15.994Z,7.63
2023-06-15T09:42:01.826Z,6.53
2023-06-15T09:44:28.962Z,6.80
2023-06-15T09:47:02.034Z,6.67
2023-06-15T09:49:30.011Z,7.70
2023-06-15T09:51:57.132Z,7.73
2023-06-15T09:54:26.106Z,7.73
2023-06-15T09:56:54.346Z,7.27
2023-06-15T09:59:22.475Z,7.40
2023-06-15T10:01:50.696Z,6.43
2023-06-15T10:04:22.779Z,5.70
2023-06-15T10:06:52.652Z,6.80
2023-06-15T10:09:25.663Z,6.03
2023-06-15T10:11:56.916Z,7.17
2023-06-15T10:14:32.716Z,5.70
2023-06-15T10:17:03.980Z,5.70
2023-06-15T10:19:40.088Z,5.80
2023-06-15T10:22:09.434Z,5.43
2023-06-15T10:24:38.149Z,8.20
2023-06-15T10:27:06.948Z,5.67
2023-06-15T10:29:42.337Z,5.20
2023-06-15T10:32:39.724Z,6.77
2023-06-15T10:35:17.383Z,5.20
2023-06-15T10:37:55.283Z,5.13
2023-06-15T10:40:30.818Z,5.43
2023-06-15T10:43:01.021Z,5.17
2023-06-15T10:45:33.347Z,4.83
2023-06-15T10:48:04.640Z,4.77
2023-06-15T10:50:54.523Z,4.43
2023-06-15T10:53:25.946Z,5.23
2023-06-15T10:55:55.257Z,5.20
2023-06-15T10:58:22.418Z,7.70
2023-06-15T11:01:09.877Z,4.87
2023-06-15T11:03:40.501Z,5.50
2023-06-15T11:06:14.106Z,4.50
2023-06-15T11:09:00.965Z,6.47
2023-06-15T11:11:38.354Z,4.90
2023-06-15T11:14:07.549Z,6.00
2023-06-15T11:16:38.296Z,4.40
2023-06-15T11:19:13.730Z,5.17
2023-06-15T11:21:42.983Z,4.70
2023-06-15T11:24:15.292Z,5.57
2023-06-15T11:26:42.169Z,6.20
2023-06-15T11:29:10.105Z,4.83
2023-06-15T11:31:37.061Z,4.60
2023-06-15T11:34:03.765Z,4.33
2023-06-15T11:36:30.513Z,4.63
2023-06-15T11:38:57.070Z,5.60
2023-06-15T11:41:23.686Z,5.70
2023-06-15T11:43:50.554Z,4.33
2023-06-15T11:46:19.261Z,4.43
2023-06-15T11:48:46.883Z,4.20
2023-06-15T11:51:15.184Z,4.73
2023-06-15T11:53:43.270Z,6.17
2023-06-15T11:56:15.287Z,5.13
2023-06-15T11:58:42.495Z,4.37
2023-06-15T12:01:13.167Z,3.97
2023-06-15T12:03:57.989Z,3.67
2023-06-15T12:06:30.682Z,5.30
2023-06-15T12:08:57.605Z,4.57
2023-06-15T12:11:26.330Z,4.17
2023-06-15T12:13:52.922Z,4.23
2023-06-15T12:16:19.715Z,4.23
2023-06-15T12:18:55.892Z,4.47
2023-06-15T12:21:23.518Z,4.00
2023-06-15T12:23:51.219Z,5.40
2023-06-15T12:26:19.617Z,5.00
2023-06-15T12:28:50.029Z,3.90
2023-06-15T12:31:16.922Z,4.23
2023-06-15T12:33:44.270Z,4.80
2023-06-15T12:36:13.295Z,4.00
2023-06-15T12:38:43.540Z,4.40
2023-06-15T12:41:14.467Z,5.00
2023-06-15T12:43:41.331Z,4.37
2023-06-15T12:46:08.409Z,3.90
2023-06-15T12:48:35.340Z,3.77
2023-06-15T12:51:02.016Z,4.33
2023-06-15T12:53:28.585Z,4.37
2023-06-15T12:55:56.697Z,4.83
2023-06-15T12:58:23.323Z,3.93
2023-06-15T13:00:50.008Z,3.70
2023-06-15T13:03:17.250Z,3.80
2023-06-15T13:05:43.902Z,3.60
2023-06-15T13:08:12.319Z,3.63
2023-06-15T13:10:39.182Z,4.53
2023-06-15T13:13:06.226Z,4.10
2023-06-15T13:15:33.005Z,4.00
2023-06-15T13:17:59.736Z,4.37
2023-06-15T13:20:26.475Z,4.80
2023-06-15T13:22:53.465Z,3.83
2023-06-15T13:25:20.976Z,4.07
2023-06-15T13:27:48.253Z,4.87
2023-06-15T13:30:16.770Z,5.37
2023-06-15T13:32:45.243Z,3.47
2023-06-15T13:35:12.617Z,3.00
2023-06-15T13:37:40.063Z,4.07
2023-06-15T13:40:08.120Z,3.40
2023-06-15T13:42:36.512Z,3.93
2023-06-15T13:45:08.565Z,3.43
2023-06-15T13:47:36.693Z,4.03
2023-06-15T13:50:04.948Z,4.27
2023-06-15T13:52:32.227Z,3.63
2023-06-15T13:54:59.771Z,3.83
2023-06-15T13:57:26.607Z,3.53
2023-06-15T13:59:53.229Z,3.77
2023-06-15T14:02:20.370Z,3.40
2023-06-15T14:04:46.997Z,3.90
2023-06-15T14:07:14.945Z,3.87
2023-06-15T14:09:43.103Z,3.77
2023-06-15T14:12:11.960Z,3.63
2023-06-15T14:14:38.761Z,3.40
2023-06-15T14:17:05.422Z,4.17
2023-06-15T14:19:32.095Z,3.40
2023-06-15T14:21:58.723Z,3.87
2023-06-15T14:24:25.329Z,4.77
2023-06-15T14:26:51.899Z,3.97
2023-06-15T14:29:18.528Z,3.90
2023-06-15T14:31:51.685Z,3.57
2023-06-15T14:34:21.272Z,4.27
2023-06-15T14:36:49.010Z,3.30
2023-06-15T14:39:16.960Z,3.67
2023-06-15T14:41:44.656Z,4.00
2023-06-15T14:44:12.886Z,3.80
2023-06-15T14:46:41.313Z,3.30
2023-06-15T14:49:09.774Z,3.00
2023-06-15T14:51:37.437Z,3.50
2023-06-15T14:54:05.596Z,3.67
2023-06-15T14:56:32.712Z,3.27
2023-06-15T14:59:01.179Z,3.13
2023-06-15T15:01:29.103Z,3.70
2023-06-15T15:03:55.999Z,3.10
2023-06-15T15:06:23.267Z,3.57
2023-06-15T15:08:52.112Z,4.03
2023-06-15T15:11:19.662Z,3.67
2023-06-15T15:13:46.278Z,2.97
2023-06-15T15:16:13.208Z,3.50
2023-06-15T15:18:40.826Z,3.77
2023-06-15T15:21:07.618Z,4.03
2023-06-15T15:23:35.221Z,3.57
2023-06-15T15:26:03.530Z,3.47
2023-06-15T15:28:30.556Z,4.23
2023-06-15T15:30:57.346Z,4.00
2023-06-15T15:33:23.989Z,3.57
2023-06-15T15:35:50.751Z,2.97
2023-06-15T15:38:17.361Z,3.20
2023-06-15T15:40:44.161Z,3.47
2023-06-15T15:43:10.724Z,4.07
2023-06-15T15:45:37.838Z,3.70
2023-06-15T15:48:05.300Z,3.90
2023-06-15T15:50:33.771Z,4.30
2023-06-15T15:53:00.488Z,3.33
2023-06-15T15:55:28.897Z,3.77
2023-06-15T15:57:55.477Z,3.50
2023-06-15T16:00:22.537Z,3.13
2023-06-15T16:02:49.371Z,3.53
2023-06-15T16:05:16.167Z,3.63
2023-06-15T16:07:45.321Z,3.33
2023-06-15T16:10:12.636Z,3.67
2023-06-15T16:12:41.184Z,4.00
2023-06-15T16:15:10.113Z,4.33
2023-06-15T16:17:37.256Z,3.27
2023-06-15T16:20:05.586Z,3.53
2023-06-15T16:22:33.114Z,3.30
2023-06-15T16:25:00.505Z,4.50
2023-06-15T16:27:27.461Z,4.73
2023-06-15T16:29:54.314Z,4.23
2023-06-15T16:32:21.481Z,3.33
2023-06-15T16:34:48.344Z,3.50
2023-06-15T16:37:14.950Z,3.63
2023-06-15T16:39:44.598Z,4.33
2023-06-15T16:42:11.558Z,3.30
2023-06-15T16:44:38.125Z,3.67
2023-06-15T16:47:05.802Z,3.90
2023-06-15T16:49:51.062Z,4.63
2023-06-15T16:52:19.618Z,3.90
2023-06-15T16:54:46.924Z,4.33
2023-06-15T16:57:15.411Z,3.33
2023-06-15T16:59:43.245Z,3.50
2023-06-15T17:02:14.798Z,4.83
2023-06-15T17:04:41.851Z,7.20
2023-06-15T17:07:10.620Z,7.33
2023-06-15T17:09:42.729Z,4.37
2023-06-15T17:12:10.208Z,4.73
2023-06-15T17:14:40.321Z,4.23
2023-06-15T17:17:07.567Z,4.47
2023-06-15T17:19:34.745Z,3.37
2023-06-15T17:22:02.651Z,5.87
2023-06-15T17:24:30.881Z,3.83
2023-06-15T17:27:03.219Z,6.13
2023-06-15T17:29:32.519Z,4.20
2023-06-15T17:32:00.831Z,5.07
2023-06-15T17:34:30.501Z,5.47
2023-06-15T17:37:06.007Z,5.70
2023-06-15T17:39:34.747Z,3.27
2023-06-15T17:42:01.908Z,4.77
2023-06-15T17:48:51.493Z,3.57
2023-06-15T17:51:18.413Z,6.10
2023-06-15T17:53:45.538Z,8.53
2023-06-15T17:56:14.084Z,4.67
2023-06-15T17:58:43.591Z,5.70
2023-06-15T18:01:13.915Z,4.00
2023-06-15T18:03:41.640Z,4.67
2023-06-15T18:06:09.611Z,3.77
2023-06-15T18:08:39.189Z,6.57
2023-06-15T18:11:10.900Z,10.20
2023-06-15T18:13:42.418Z,6.73
2023-06-15T18:16:09.165Z,5.57
2023-06-15T18:18:35.734Z,6.93
2023-06-15T18:21:02.663Z,9.63
2023-06-15T18:23:29.257Z,8.60
2023-06-15T18:25:56.680Z,5.90
2023-06-15T18:28:24.584Z,8.03
2023-06-15T18:30:53.102Z,11.10
2023-06-15T18:33:19.808Z,8.07
2023-06-15T18:35:46.445Z,5.63
2023-06-15T18:38:13.331Z,7.53
2023-06-15T18:40:40.011Z,4.73
2023-06-15T18:43:06.637Z,7.23
2023-06-15T18:45:33.407Z,4.73
2023-06-15T18:48:00.129Z,7.80
2023-06-15T18:50:27.702Z,3.47
2023-06-15T18:52:54.333Z,5.30
2023-06-15T18:55:21.145Z,5.90
2023-06-15T18:57:48.910Z,6.83
2023-06-15T19:00:16.153Z,6.30
2023-06-15T19:02:43.258Z,6.43
2023-06-15T19:05:10.382Z,4.33
2023-06-15T19:07:37.775Z,6.57
2023-06-15T19:10:06.788Z,13.37
2023-06-15T19:12:33.694Z,6.10
2023-06-15T19:15:00.435Z,5.83
2023-06-15T19:17:27.531Z,5.07
2023-06-15T19:19:54.194Z,9.07
2023-06-15T19:22:21.987Z,8.60
2023-06-15T19:24:49.736Z,8.67
2023-06-15T19:27:16.729Z,6.83
2023-06-15T19:29:43.396Z,10.47
2023-06-15T19:32:10.105Z,6.53
2023-06-15T19:34:36.784Z,9.13
2023-06-15T19:37:03.528Z,9.10
2023-06-15T19:39:30.180Z,8.20
2023-06-15T19:41:56.784Z,8.97
2023-06-15T19:44:23.364Z,17.90
2023-06-15T19:46:50.393Z,13.83
2023-06-15T19:49:17.052Z,16.10
2023-06-15T19:51:44.036Z,12.53
2023-06-15T19:54:10.843Z,14.53
2023-06-15T19:56:40.987Z,14.83
2023-06-15T19:59:08.202Z,13.87
2023-06-15T20:01:34.890Z,12.90
2023-06-15T20:04:01.690Z,14.30
2023-06-15T20:06:28.336Z,65.03
2023-06-15T20:08:56.632Z,189.57
2023-06-15T20:11:29.423Z,192.23
2023-06-15T20:13:58.989Z,117.73
2023-06-15T20:16:25.769Z,102.20
2023-06-15T20:18:54.156Z,101.33
2023-06-15T20:21:22.005Z,120.17
2023-06-15T20:23:48.893Z,106.27
2023-06-15T20:26:17.418Z,100.03
2023-06-15T20:28:44.527Z,117.27
2023-06-15T20:31:11.454Z,117.10
2023-06-15T20:33:38.754Z,102.97
2023-06-15T20:36:06.622Z,90.27
2023-06-15T20:38:35.879Z,93.90
2023-06-15T20:41:07.343Z,85.30
2023-06-15T20:43:34.521Z,79.03
2023-06-15T20:46:02.800Z,67.27
2023-06-15T20:48:34.072Z,69.90
2023-06-15T20:51:02.417Z,64.83
2023-06-15T20:53:29.836Z,58.77
2023-06-15T20:55:58.172Z,60.03
2023-06-15T20:58:25.504Z,49.30
2023-06-15T21:00:52.953Z,43.83
2023-06-15T21:03:21.316Z,34.90
2023-06-15T21:05:48.155Z,29.37
2023-06-15T21:08:15.513Z,22.17
2023-06-15T21:10:43.276Z,20.00
2023-06-15T21:13:11.710Z,22.47
2023-06-15T21:15:40.040Z,16.37
2023-06-15T21:18:06.736Z,15.97
2023-06-15T21:20:33.592Z,13.67
2023-06-15T21:23:01.454Z,11.53
2023-06-15T21:25:28.168Z,12.40
2023-06-15T21:27:54.744Z,9.40
2023-06-15T21:30:21.640Z,9.60
2023-06-15T21:32:48.366Z,9.17
2023-06-15T21:35:14.968Z,8.90
2023-06-15T21:37:41.708Z,11.80
2023-06-15T21:40:09.004Z,8.37
2023-06-15T21:42:35.588Z,8.97
2023-06-15T21:45:02.314Z,8.10
2023-06-15T21:47:31.344Z,7.43
2023-06-15T21:49:58.086Z,7.23
2023-06-15T21:52:24.853Z,6.97
2023-06-15T21:54:51.549Z,11.00
2023-06-15T21:57:18.222Z,5.60
2023-06-15T21:59:44.821Z,6.23
2023-06-15T22:02:12.639Z,5.70
2023-06-15T22:04:39.904Z,5.97
2023-06-15T22:07:07.019Z,5.37
2023-06-15T22:09:34.521Z,9.33
2023-06-15T22:12:02.232Z,6.57
2023-06-15T22:14:29.573Z,7.30
2023-06-15T22:16:59.709Z,5.07
2023-06-15T22:19:26.603Z,5.23
2023-06-15T22:21:53.431Z,8.17
2023-06-15T22:24:22.577Z,6.33
2023-06-15T22:26:49.320Z,4.47
2023-06-15T22:29:19.204Z,4.23
2023-06-15T22:31:49.660Z,4.70
2023-06-15T22:34:18.030Z,5.40
2023-06-15T22:36:45.059Z,4.33
2023-06-15T22:39:12.363Z,6.10
2023-06-15T22:41:40.387Z,5.03
2023-06-15T22:44:08.088Z,4.73
2023-06-15T22:46:34.998Z,4.40
2023-06-15T22:49:02.000Z,7.77
2023-06-15T22:51:33.983Z,4.13
2023-06-15T22:54:00.886Z,4.07
2023-06-15T22:56:27.816Z,4.93
2023-06-15T22:58:55.744Z,4.50
2023-06-15T23:01:23.327Z,5.77
2023-06-15T23:03:50.470Z,5.33
2023-06-15T23:06:21.393Z,5.87
2023-06-15T23:08:49.426Z,4.87
2023-06-15T23:11:19.368Z,4.50
2023-06-15T23:13:55.030Z,4.93
2023-06-15T23:16:23.059Z,4.30
2023-06-15T23:18:53.953Z,5.70
2023-06-15T23:21:22.705Z,3.93
2023-06-15T23:23:49.459Z,5.83
2023-06-15T23:26:16.451Z,4.57
2023-06-15T23:28:44.663Z,4.97
2023-06-15T23:31:15.676Z,4.00
2023-06-15T23:33:44.303Z,7.97
2023-06-15T23:36:15.143Z,4.63
2023-06-15T23:38:43.317Z,7.27
2023-06-15T23:41:10.105Z,4.47
2023-06-15T23:43:37.279Z,4.80
2023-06-15T23:46:03.968Z,5.07
2023-06-15T23:48:31.018Z,7.67
2023-06-15T23:50:57.558Z,5.20
2023-06-15T23:53:24.110Z,4.50
2023-06-15T23:55:50.651Z,5.70
2023-06-15T23:58:17.266Z,6.67
